sensor_id;sensor_type;location;lat;lon;timestamp;temperature;humidity
26278;DHT22;14000;52.056;8.510;2023-03-23T00:00:28;11.10;99.90
26278;DHT22;14000;52.056;8.510;2023-03-23T00:02:53;11.00;99.90
26278;DHT22;14000;52.056;8.510;2023-03-23T00:05:19;11.00;99.90
26278;DHT22;14000;52.056;8.510;2023-03-23T00:07:44;10.90;99.90
26278;DHT22;14000;52.056;8.510;2023-03-23T00:10:11;10.80;99.90
26278;DHT22;14000;52.056;8.510;2023-03-23T00:12:36;10.80;99.90
26278;DHT22;14000;52.056;8.510;2023-03-23T00:15:07;10.80;99.90
26278;DHT22;14000;52.056;8.510;2023-03-23T00:17:33;10.80;99.90
26278;DHT22;14000;52.056;8.510;2023-03-23T00:20:00;10.70;99.90
26278;DHT22;14000;52.056;8.510;2023-03-23T00:22:27;10.70;99.90
26278;DHT22;14000;52.056;8.510;2023-03-23T00:24:54;10.60;99.90
26278;DHT22;14000;52.056;8.510;2023-03-23T00:27:20;10.60;99.90
26278;DHT22;14000;52.056;8.510;2023-03-23T00:29:48;10.60;99.90
26278;DHT22;14000;52.056;8.510;2023-03-23T00:32:18;10.60;99.90
26278;DHT22;14000;52.056;8.510;2023-03-23T00:34:46;10.60;99.90
26278;DHT22;14000;52.056;8.510;2023-03-23T00:37:14;10.60;99.90
26278;DHT22;14000;52.056;8.510;2023-03-23T00:39:41;10.60;99.90
26278;DHT22;14000;52.056;8.510;2023-03-23T00:42:09;10.60;99.90
26278;DHT22;14000;52.056;8.510;2023-03-23T00:44:35;10.60;99.90
26278;DHT22;14000;52.056;8.510;2023-03-23T00:47:02;10.60;99.90
26278;DHT22;14000;52.056;8.510;2023-03-23T00:49:28;10.50;99.90
26278;DHT22;14000;52.056;8.510;2023-03-23T00:51:56;10.50;99.90
26278;DHT22;14000;52.056;8.510;2023-03-23T00:54:23;10.50;99.90
26278;DHT22;14000;52.056;8.510;2023-03-23T00:56:50;10.50;99.90
26278;DHT22;14000;52.056;8.510;2023-03-23T00:59:16;10.50;99.90
26278;DHT22;14000;52.056;8.510;2023-03-23T01:01:42;10.60;99.90
26278;DHT22;14000;52.056;8.510;2023-03-23T01:04:08;10.50;99.90
26278;DHT22;14000;52.056;8.510;2023-03-23T01:06:36;10.60;99.90
26278;DHT22;14000;52.056;8.510;2023-03-23T01:09:13;10.50;99.90
26278;DHT22;14000;52.056;8.510;2023-03-23T01:11:41;10.50;99.90
26278;DHT22;14000;52.056;8.510;2023-03-23T01:14:07;10.60;99.90
26278;DHT22;14000;52.056;8.510;2023-03-23T01:16:33;10.60;99.90
26278;DHT22;14000;52.056;8.510;2023-03-23T01:18:59;10.60;99.90
26278;DHT22;14000;52.056;8.510;2023-03-23T01:21:24;10.60;99.90
26278;DHT22;14000;52.056;8.510;2023-03-23T01:23:50;10.60;99.90
26278;DHT22;14000;52.056;8.510;2023-03-23T01:26:19;10.70;99.90
26278;DHT22;14000;52.056;8.510;2023-03-23T01:28:45;10.80;99.90
26278;DHT22;14000;52.056;8.510;2023-03-23T01:31:13;10.80;99.90
26278;DHT22;14000;52.056;8.510;2023-03-23T01:33:40;10.80;99.90
26278;DHT22;14000;52.056;8.510;2023-03-23T01:36:08;10.90;99.90
26278;DHT22;14000;52.056;8.510;2023-03-23T01:38:35;10.90;99.90
26278;DHT22;14000;52.056;8.510;2023-03-23T01:41:02;10.90;99.90
26278;DHT22;14000;52.056;8.510;2023-03-23T01:43:28;10.90;99.90
26278;DHT22;14000;52.056;8.510;2023-03-23T01:45:54;10.90;99.90
26278;DHT22;14000;52.056;8.510;2023-03-23T01:48:32;10.90;99.90
26278;DHT22;14000;52.056;8.510;2023-03-23T01:51:12;10.90;99.90
26278;DHT22;14000;52.056;8.510;2023-03-23T01:53:44;11.00;99.90
26278;DHT22;14000;52.056;8.510;2023-03-23T01:56:13;11.00;99.90
26278;DHT22;14000;52.056;8.510;2023-03-23T01:58:40;11.00;99.90
26278;DHT22;14000;52.056;8.510;2023-03-23T02:01:10;11.00;99.90
26278;DHT22;14000;52.056;8.510;2023-03-23T02:03:39;11.10;99.90
26278;DHT22;14000;52.056;8.510;2023-03-23T02:06:06;11.20;99.90
26278;DHT22;14000;52.056;8.510;2023-03-23T02:08:33;11.20;99.90
26278;DHT22;14000;52.056;8.510;2023-03-23T02:10:59;11.20;99.90
26278;DHT22;14000;52.056;8.510;2023-03-23T02:13:26;11.30;99.90
26278;DHT22;14000;52.056;8.510;2023-03-23T02:16:17;11.30;99.90
26278;DHT22;14000;52.056;8.510;2023-03-23T02:19:07;11.30;99.90
26278;DHT22;14000;52.056;8.510;2023-03-23T02:25:01;11.40;99.90
26278;DHT22;14000;52.056;8.510;2023-03-23T02:30:39;11.40;99.90
26278;DHT22;14000;52.056;8.510;2023-03-23T02:36:10;11.40;99.90
26278;DHT22;14000;52.056;8.510;2023-03-23T02:41:07;11.30;99.90
26278;DHT22;14000;52.056;8.510;2023-03-23T02:43:40;11.20;99.90
26278;DHT22;14000;52.056;8.510;2023-03-23T02:46:08;11.10;99.90
26278;DHT22;14000;52.056;8.510;2023-03-23T02:48:36;10.90;99.90
26278;DHT22;14000;52.056;8.510;2023-03-23T02:51:04;10.90;99.90
26278;DHT22;14000;52.056;8.510;2023-03-23T02:53:30;10.90;99.90
26278;DHT22;14000;52.056;8.510;2023-03-23T02:55:59;10.80;99.90
26278;DHT22;14000;52.056;8.510;2023-03-23T02:58:28;10.90;99.90
26278;DHT22;14000;52.056;8.510;2023-03-23T03:00:55;10.90;99.90
26278;DHT22;14000;52.056;8.510;2023-03-23T03:03:23;10.90;99.90
26278;DHT22;14000;52.056;8.510;2023-03-23T03:08:47;10.90;99.90
26278;DHT22;14000;52.056;8.510;2023-03-23T03:11:16;10.90;99.90
26278;DHT22;14000;52.056;8.510;2023-03-23T03:13:58;11.00;99.90
26278;DHT22;14000;52.056;8.510;2023-03-23T03:19:03;11.00;99.90
26278;DHT22;14000;52.056;8.510;2023-03-23T03:21:33;11.00;99.90
26278;DHT22;14000;52.056;8.510;2023-03-23T03:24:02;11.00;99.90
26278;DHT22;14000;52.056;8.510;2023-03-23T03:26:30;11.00;99.90
26278;DHT22;14000;52.056;8.510;2023-03-23T03:28:57;11.10;99.90
26278;DHT22;14000;52.056;8.510;2023-03-23T03:31:27;11.00;99.90
26278;DHT22;14000;52.056;8.510;2023-03-23T03:33:54;11.10;99.90
26278;DHT22;14000;52.056;8.510;2023-03-23T03:36:27;11.10;99.90
26278;DHT22;14000;52.056;8.510;2023-03-23T03:38:53;11.10;99.90
26278;DHT22;14000;52.056;8.510;2023-03-23T03:41:19;11.00;99.90
26278;DHT22;14000;52.056;8.510;2023-03-23T03:43:45;11.00;99.90
26278;DHT22;14000;52.056;8.510;2023-03-23T03:46:11;11.00;99.90
26278;DHT22;14000;52.056;8.510;2023-03-23T03:48:37;10.90;99.90
26278;DHT22;14000;52.056;8.510;2023-03-23T03:51:03;10.90;99.90
26278;DHT22;14000;52.056;8.510;2023-03-23T03:53:29;10.80;99.90
26278;DHT22;14000;52.056;8.510;2023-03-23T03:55:56;10.90;99.90
26278;DHT22;14000;52.056;8.510;2023-03-23T03:58:25;10.80;99.90
26278;DHT22;14000;52.056;8.510;2023-03-23T04:00:51;10.90;99.90
26278;DHT22;14000;52.056;8.510;2023-03-23T04:03:18;10.90;99.90
26278;DHT22;14000;52.056;8.510;2023-03-23T04:05:43;10.90;99.90
26278;DHT22;14000;52.056;8.510;2023-03-23T04:08:10;11.00;99.90
26278;DHT22;14000;52.056;8.510;2023-03-23T04:10:36;11.00;99.90
26278;DHT22;14000;52.056;8.510;2023-03-23T04:13:02;11.00;99.90
26278;DHT22;14000;52.056;8.510;2023-03-23T04:15:30;11.00;99.90
26278;DHT22;14000;52.056;8.510;2023-03-23T04:17:55;10.90;99.90
26278;DHT22;14000;52.056;8.510;2023-03-23T04:20:23;11.00;99.90
26278;DHT22;14000;52.056;8.510;2023-03-23T04:22:49;11.00;99.90
26278;DHT22;14000;52.056;8.510;2023-03-23T04:25:17;11.00;99.90
26278;DHT22;14000;52.056;8.510;2023-03-23T04:27:46;11.00;99.90
26278;DHT22;14000;52.056;8.510;2023-03-23T04:30:18;11.10;99.90
26278;DHT22;14000;52.056;8.510;2023-03-23T04:32:45;11.10;99.90
26278;DHT22;14000;52.056;8.510;2023-03-23T04:35:13;11.10;99.90
26278;DHT22;14000;52.056;8.510;2023-03-23T04:37:39;11.10;99.90
26278;DHT22;14000;52.056;8.510;2023-03-23T04:40:07;11.10;99.90
26278;DHT22;14000;52.056;8.510;2023-03-23T04:42:36;11.10;99.90
26278;DHT22;14000;52.056;8.510;2023-03-23T04:45:03;11.10;99.90
26278;DHT22;14000;52.056;8.510;2023-03-23T04:47:33;11.20;99.90
26278;DHT22;14000;52.056;8.510;2023-03-23T04:49:59;11.20;99.90
26278;DHT22;14000;52.056;8.510;2023-03-23T04:52:27;11.30;99.90
26278;DHT22;14000;52.056;8.510;2023-03-23T04:54:54;11.30;99.90
26278;DHT22;14000;52.056;8.510;2023-03-23T04:57:21;11.40;99.90
26278;DHT22;14000;52.056;8.510;2023-03-23T04:59:47;11.40;99.90
26278;DHT22;14000;52.056;8.510;2023-03-23T05:02:14;11.40;99.90
26278;DHT22;14000;52.056;8.510;2023-03-23T05:04:40;11.40;99.90
26278;DHT22;14000;52.056;8.510;2023-03-23T05:07:07;11.40;99.90
26278;DHT22;14000;52.056;8.510;2023-03-23T05:09:33;11.50;99.90
26278;DHT22;14000;52.056;8.510;2023-03-23T05:12:09;11.50;99.90
26278;DHT22;14000;52.056;8.510;2023-03-23T05:14:35;11.50;99.90
26278;DHT22;14000;52.056;8.510;2023-03-23T05:17:05;11.50;99.90
26278;DHT22;14000;52.056;8.510;2023-03-23T05:19:31;11.60;99.90
26278;DHT22;14000;52.056;8.510;2023-03-23T05:21:58;11.50;99.90
26278;DHT22;14000;52.056;8.510;2023-03-23T05:24:32;11.50;99.90
26278;DHT22;14000;52.056;8.510;2023-03-23T05:26:58;11.50;99.90
26278;DHT22;14000;52.056;8.510;2023-03-23T05:29:24;11.60;99.90
26278;DHT22;14000;52.056;8.510;2023-03-23T05:31:51;11.50;99.90
26278;DHT22;14000;52.056;8.510;2023-03-23T05:34:19;11.50;99.90
26278;DHT22;14000;52.056;8.510;2023-03-23T05:36:45;11.50;99.90
26278;DHT22;14000;52.056;8.510;2023-03-23T05:39:11;11.50;99.90
26278;DHT22;14000;52.056;8.510;2023-03-23T05:41:37;11.50;99.90
26278;DHT22;14000;52.056;8.510;2023-03-23T05:44:03;11.50;99.90
26278;DHT22;14000;52.056;8.510;2023-03-23T05:46:29;11.50;99.90
26278;DHT22;14000;52.056;8.510;2023-03-23T05:48:55;11.50;99.90
26278;DHT22;14000;52.056;8.510;2023-03-23T05:51:21;11.60;99.90
26278;DHT22;14000;52.056;8.510;2023-03-23T05:53:46;11.50;99.90
26278;DHT22;14000;52.056;8.510;2023-03-23T05:56:13;11.60;99.90
26278;DHT22;14000;52.056;8.510;2023-03-23T05:58:39;11.60;99.90
26278;DHT22;14000;52.056;8.510;2023-03-23T06:01:08;11.60;99.90
26278;DHT22;14000;52.056;8.510;2023-03-23T06:03:34;11.60;99.90
26278;DHT22;14000;52.056;8.510;2023-03-23T06:06:02;11.60;99.90
26278;DHT22;14000;52.056;8.510;2023-03-23T06:08:28;11.70;99.90
26278;DHT22;14000;52.056;8.510;2023-03-23T06:10:54;11.70;99.90
26278;DHT22;14000;52.056;8.510;2023-03-23T06:13:20;11.70;99.90
26278;DHT22;14000;52.056;8.510;2023-03-23T06:15:46;11.70;99.90
26278;DHT22;14000;52.056;8.510;2023-03-23T06:18:12;11.80;99.90
26278;DHT22;14000;52.056;8.510;2023-03-23T06:20:38;11.80;99.90
26278;DHT22;14000;52.056;8.510;2023-03-23T06:23:04;11.80;99.90
26278;DHT22;14000;52.056;8.510;2023-03-23T06:25:31;11.80;99.90
26278;DHT22;14000;52.056;8.510;2023-03-23T06:27:57;11.80;99.90
26278;DHT22;14000;52.056;8.510;2023-03-23T06:30:23;11.80;99.90
26278;DHT22;14000;52.056;8.510;2023-03-23T06:32:49;11.90;99.90
26278;DHT22;14000;52.056;8.510;2023-03-23T06:35:15;11.90;99.90
26278;DHT22;14000;52.056;8.510;2023-03-23T06:37:41;11.90;99.90
26278;DHT22;14000;52.056;8.510;2023-03-23T06:40:08;11.90;99.90
26278;DHT22;14000;52.056;8.510;2023-03-23T06:42:35;11.90;99.90
26278;DHT22;14000;52.056;8.510;2023-03-23T06:45:02;11.90;99.90
26278;DHT22;14000;52.056;8.510;2023-03-23T06:47:27;12.00;99.90
26278;DHT22;14000;52.056;8.510;2023-03-23T06:49:58;12.10;99.90
26278;DHT22;14000;52.056;8.510;2023-03-23T06:52:25;12.10;99.90
26278;DHT22;14000;52.056;8.510;2023-03-23T06:54:51;12.10;99.90
26278;DHT22;14000;52.056;8.510;2023-03-23T06:57:17;12.20;99.90
26278;DHT22;14000;52.056;8.510;2023-03-23T06:59:43;12.20;99.90
26278;DHT22;14000;52.056;8.510;2023-03-23T07:02:10;12.10;99.90
26278;DHT22;14000;52.056;8.510;2023-03-23T07:04:37;12.20;99.90
26278;DHT22;14000;52.056;8.510;2023-03-23T07:07:04;12.30;99.90
26278;DHT22;14000;52.056;8.510;2023-03-23T07:09:30;12.30;99.90
26278;DHT22;14000;52.056;8.510;2023-03-23T07:11:56;12.30;99.90
26278;DHT22;14000;52.056;8.510;2023-03-23T07:14:22;12.40;99.90
26278;DHT22;14000;52.056;8.510;2023-03-23T07:16:49;12.40;99.90
26278;DHT22;14000;52.056;8.510;2023-03-23T07:19:14;12.40;99.90
26278;DHT22;14000;52.056;8.510;2023-03-23T07:21:40;12.40;99.90
26278;DHT22;14000;52.056;8.510;2023-03-23T07:24:09;12.40;99.90
26278;DHT22;14000;52.056;8.510;2023-03-23T07:26:35;12.40;99.90
26278;DHT22;14000;52.056;8.510;2023-03-23T07:29:01;12.40;99.90
26278;DHT22;14000;52.056;8.510;2023-03-23T07:31:26;12.50;99.90
26278;DHT22;14000;52.056;8.510;2023-03-23T07:33:52;12.50;99.90
26278;DHT22;14000;52.056;8.510;2023-03-23T07:36:18;12.60;99.90
26278;DHT22;14000;52.056;8.510;2023-03-23T07:38:43;12.70;99.90
26278;DHT22;14000;52.056;8.510;2023-03-23T07:41:09;12.80;99.90
26278;DHT22;14000;52.056;8.510;2023-03-23T07:43:34;12.80;99.90
26278;DHT22;14000;52.056;8.510;2023-03-23T07:46:00;12.80;99.90
26278;DHT22;14000;52.056;8.510;2023-03-23T07:48:26;12.80;99.90
26278;DHT22;14000;52.056;8.510;2023-03-23T07:50:52;12.80;99.90
26278;DHT22;14000;52.056;8.510;2023-03-23T07:53:17;12.90;99.90
26278;DHT22;14000;52.056;8.510;2023-03-23T07:55:43;12.80;99.90
26278;DHT22;14000;52.056;8.510;2023-03-23T07:58:09;12.80;99.90
26278;DHT22;14000;52.056;8.510;2023-03-23T08:00:35;12.90;99.90
26278;DHT22;14000;52.056;8.510;2023-03-23T08:03:00;12.80;99.90
26278;DHT22;14000;52.056;8.510;2023-03-23T08:05:28;12.80;99.90
26278;DHT22;14000;52.056;8.510;2023-03-23T08:07:54;12.80;99.90
26278;DHT22;14000;52.056;8.510;2023-03-23T08:10:21;12.70;99.90
26278;DHT22;14000;52.056;8.510;2023-03-23T08:12:52;12.70;99.90
26278;DHT22;14000;52.056;8.510;2023-03-23T08:15:18;12.60;99.90
26278;DHT22;14000;52.056;8.510;2023-03-23T08:17:44;12.60;99.90
26278;DHT22;14000;52.056;8.510;2023-03-23T08:20:12;12.70;99.90
26278;DHT22;14000;52.056;8.510;2023-03-23T08:22:45;12.70;99.90
26278;DHT22;14000;52.056;8.510;2023-03-23T08:25:14;12.80;99.90
26278;DHT22;14000;52.056;8.510;2023-03-23T08:27:42;12.70;99.90
26278;DHT22;14000;52.056;8.510;2023-03-23T08:30:10;12.70;99.90
26278;DHT22;14000;52.056;8.510;2023-03-23T08:32:36;12.60;99.90
26278;DHT22;14000;52.056;8.510;2023-03-23T08:35:03;12.50;99.90
26278;DHT22;14000;52.056;8.510;2023-03-23T08:37:29;12.50;99.90
26278;DHT22;14000;52.056;8.510;2023-03-23T08:39:56;12.50;99.90
26278;DHT22;14000;52.056;8.510;2023-03-23T08:42:24;12.50;99.90
26278;DHT22;14000;52.056;8.510;2023-03-23T08:44:50;12.50;99.90
26278;DHT22;14000;52.056;8.510;2023-03-23T08:47:16;12.60;99.90
26278;DHT22;14000;52.056;8.510;2023-03-23T08:49:42;12.70;99.90
26278;DHT22;14000;52.056;8.510;2023-03-23T08:52:08;12.80;99.90
26278;DHT22;14000;52.056;8.510;2023-03-23T08:54:34;12.90;99.90
26278;DHT22;14000;52.056;8.510;2023-03-23T08:57:01;13.00;99.90
26278;DHT22;14000;52.056;8.510;2023-03-23T08:59:28;13.00;99.90
26278;DHT22;14000;52.056;8.510;2023-03-23T09:01:53;13.20;99.90
26278;DHT22;14000;52.056;8.510;2023-03-23T09:04:19;13.20;99.90
26278;DHT22;14000;52.056;8.510;2023-03-23T09:06:46;13.20;99.90
26278;DHT22;14000;52.056;8.510;2023-03-23T09:09:12;13.20;99.90
26278;DHT22;14000;52.056;8.510;2023-03-23T09:11:38;13.20;99.90
26278;DHT22;14000;52.056;8.510;2023-03-23T09:14:05;13.20;99.90
26278;DHT22;14000;52.056;8.510;2023-03-23T09:16:32;13.30;99.90
26278;DHT22;14000;52.056;8.510;2023-03-23T09:18:58;13.40;99.90
26278;DHT22;14000;52.056;8.510;2023-03-23T09:21:25;13.40;99.90
26278;DHT22;14000;52.056;8.510;2023-03-23T09:23:52;13.50;99.90
26278;DHT22;14000;52.056;8.510;2023-03-23T09:26:18;13.50;99.90
26278;DHT22;14000;52.056;8.510;2023-03-23T09:28:43;13.50;99.90
26278;DHT22;14000;52.056;8.510;2023-03-23T09:31:11;13.60;99.90
26278;DHT22;14000;52.056;8.510;2023-03-23T09:33:37;13.60;99.90
26278;DHT22;14000;52.056;8.510;2023-03-23T09:36:03;13.50;99.90
26278;DHT22;14000;52.056;8.510;2023-03-23T09:38:31;13.60;99.90
26278;DHT22;14000;52.056;8.510;2023-03-23T09:47:29;13.60;99.90
26278;DHT22;14000;52.056;8.510;2023-03-23T09:50:03;13.60;99.90
26278;DHT22;14000;52.056;8.510;2023-03-23T09:52:55;13.70;99.90
26278;DHT22;14000;52.056;8.510;2023-03-23T09:55:22;13.60;99.90
26278;DHT22;14000;52.056;8.510;2023-03-23T10:00:36;13.50;99.90
26278;DHT22;14000;52.056;8.510;2023-03-23T10:03:15;13.60;99.90
26278;DHT22;14000;52.056;8.510;2023-03-23T10:05:54;13.50;99.90
26278;DHT22;14000;52.056;8.510;2023-03-23T10:08:22;13.60;99.90
26278;DHT22;14000;52.056;8.510;2023-03-23T10:19:51;13.80;99.90
26278;DHT22;14000;52.056;8.510;2023-03-23T10:22:26;13.70;99.90
26278;DHT22;14000;52.056;8.510;2023-03-23T10:25:02;13.90;99.90
26278;DHT22;14000;52.056;8.510;2023-03-23T10:27:33;13.90;99.90
26278;DHT22;14000;52.056;8.510;2023-03-23T10:30:17;14.00;99.90
26278;DHT22;14000;52.056;8.510;2023-03-23T10:32:50;14.10;99.90
26278;DHT22;14000;52.056;8.510;2023-03-23T10:35:23;14.20;99.90
26278;DHT22;14000;52.056;8.510;2023-03-23T10:37:56;14.30;99.90
26278;DHT22;14000;52.056;8.510;2023-03-23T10:40:27;14.30;99.90
26278;DHT22;14000;52.056;8.510;2023-03-23T10:42:54;14.30;99.90
26278;DHT22;14000;52.056;8.510;2023-03-23T10:45:23;14.30;99.90
26278;DHT22;14000;52.056;8.510;2023-03-23T10:51:03;14.10;99.90
26278;DHT22;14000;52.056;8.510;2023-03-23T10:53:34;13.90;99.90
26278;DHT22;14000;52.056;8.510;2023-03-23T10:56:00;12.40;99.90
26278;DHT22;14000;52.056;8.510;2023-03-23T10:58:34;11.20;99.90
26278;DHT22;14000;52.056;8.510;2023-03-23T11:01:03;10.40;99.90
26278;DHT22;14000;52.056;8.510;2023-03-23T11:03:42;10.10;99.90
26278;DHT22;14000;52.056;8.510;2023-03-23T11:06:12;9.90;99.90
26278;DHT22;14000;52.056;8.510;2023-03-23T11:09:00;9.80;99.90
26278;DHT22;14000;52.056;8.510;2023-03-23T11:11:29;9.70;99.90
26278;DHT22;14000;52.056;8.510;2023-03-23T11:14:15;9.70;99.90
26278;DHT22;14000;52.056;8.510;2023-03-23T11:16:53;9.70;99.90
26278;DHT22;14000;52.056;8.510;2023-03-23T11:19:28;9.70;99.90
26278;DHT22;14000;52.056;8.510;2023-03-23T11:22:14;9.60;99.90
26278;DHT22;14000;52.056;8.510;2023-03-23T11:24:43;9.50;99.90
26278;DHT22;14000;52.056;8.510;2023-03-23T11:27:10;9.50;99.90
26278;DHT22;14000;52.056;8.510;2023-03-23T11:29:48;9.50;99.90
26278;DHT22;14000;52.056;8.510;2023-03-23T11:32:16;9.40;99.90
26278;DHT22;14000;52.056;8.510;2023-03-23T11:34:47;9.50;99.90
26278;DHT22;14000;52.056;8.510;2023-03-23T11:37:35;9.50;99.90
26278;DHT22;14000;52.056;8.510;2023-03-23T11:45:34;9.50;99.90
26278;DHT22;14000;52.056;8.510;2023-03-23T11:51:05;9.50;99.90
26278;DHT22;14000;52.056;8.510;2023-03-23T11:56:30;9.50;99.90
26278;DHT22;14000;52.056;8.510;2023-03-23T11:58:59;9.60;99.90
26278;DHT22;14000;52.056;8.510;2023-03-23T12:09:48;9.60;99.90
26278;DHT22;14000;52.056;8.510;2023-03-23T12:14:51;9.60;99.90
26278;DHT22;14000;52.056;8.510;2023-03-23T12:20:28;9.50;99.90
26278;DHT22;14000;52.056;8.510;2023-03-23T12:23:22;9.50;99.90
26278;DHT22;14000;52.056;8.510;2023-03-23T12:36:23;9.80;99.90
26278;DHT22;14000;52.056;8.510;2023-03-23T12:44:03;9.60;99.90
26278;DHT22;14000;52.056;8.510;2023-03-23T12:47:05;9.60;99.90
26278;DHT22;14000;52.056;8.510;2023-03-23T12:49:48;9.60;99.90
26278;DHT22;14000;52.056;8.510;2023-03-23T12:57:51;9.80;99.90
26278;DHT22;14000;52.056;8.510;2023-03-23T13:00:48;9.70;99.90
26278;DHT22;14000;52.056;8.510;2023-03-23T13:03:46;9.80;99.90
26278;DHT22;14000;52.056;8.510;2023-03-23T13:09:00;10.10;99.90
26278;DHT22;14000;52.056;8.510;2023-03-23T13:11:34;10.20;99.90
26278;DHT22;14000;52.056;8.510;2023-03-23T13:22:39;10.30;99.90
26278;DHT22;14000;52.056;8.510;2023-03-23T13:25:15;10.50;99.90
26278;DHT22;14000;52.056;8.510;2023-03-23T13:27:42;10.50;99.90
26278;DHT22;14000;52.056;8.510;2023-03-23T13:30:20;10.50;99.90
26278;DHT22;14000;52.056;8.510;2023-03-23T13:32:50;10.60;99.90
26278;DHT22;14000;52.056;8.510;2023-03-23T13:35:18;10.60;99.90
26278;DHT22;14000;52.056;8.510;2023-03-23T13:37:49;10.70;99.90
26278;DHT22;14000;52.056;8.510;2023-03-23T13:42:50;11.10;99.90
26278;DHT22;14000;52.056;8.510;2023-03-23T13:47:44;11.50;99.90
26278;DHT22;14000;52.056;8.510;2023-03-23T13:50:25;11.40;99.90
26278;DHT22;14000;52.056;8.510;2023-03-23T13:52:59;11.30;99.90
26278;DHT22;14000;52.056;8.510;2023-03-23T13:55:42;11.30;99.90
26278;DHT22;14000;52.056;8.510;2023-03-23T14:00:34;11.20;99.90
26278;DHT22;14000;52.056;8.510;2023-03-23T14:03:36;11.20;99.90
26278;DHT22;14000;52.056;8.510;2023-03-23T14:08:45;11.40;99.90
26278;DHT22;14000;52.056;8.510;2023-03-23T14:11:22;11.30;99.90
26278;DHT22;14000;52.056;8.510;2023-03-23T14:14:14;11.40;99.90
26278;DHT22;14000;52.056;8.510;2023-03-23T14:16:41;11.40;99.90
26278;DHT22;14000;52.056;8.510;2023-03-23T14:19:33;11.30;99.90
26278;DHT22;14000;52.056;8.510;2023-03-23T14:22:03;11.30;99.90
26278;DHT22;14000;52.056;8.510;2023-03-23T14:24:33;11.30;99.90
26278;DHT22;14000;52.056;8.510;2023-03-23T14:29:36;11.30;99.90
26278;DHT22;14000;52.056;8.510;2023-03-23T14:32:02;11.30;99.90
26278;DHT22;14000;52.056;8.510;2023-03-23T14:34:32;11.30;99.90
26278;DHT22;14000;52.056;8.510;2023-03-23T14:36:59;11.30;99.90
26278;DHT22;14000;52.056;8.510;2023-03-23T14:39:30;11.40;99.90
26278;DHT22;14000;52.056;8.510;2023-03-23T14:42:03;11.40;99.90
26278;DHT22;14000;52.056;8.510;2023-03-23T14:44:33;11.50;99.90
26278;DHT22;14000;52.056;8.510;2023-03-23T14:47:10;11.50;99.90
26278;DHT22;14000;52.056;8.510;2023-03-23T14:49:41;11.60;99.90
26278;DHT22;14000;52.056;8.510;2023-03-23T14:52:15;11.70;99.90
26278;DHT22;14000;52.056;8.510;2023-03-23T14:54:43;11.80;99.90
26278;DHT22;14000;52.056;8.510;2023-03-23T14:57:15;11.90;99.90
26278;DHT22;14000;52.056;8.510;2023-03-23T14:59:46;12.00;99.90
26278;DHT22;14000;52.056;8.510;2023-03-23T15:02:37;12.10;99.90
26278;DHT22;14000;52.056;8.510;2023-03-23T15:05:13;12.40;99.90
26278;DHT22;14000;52.056;8.510;2023-03-23T15:07:42;12.40;99.90
26278;DHT22;14000;52.056;8.510;2023-03-23T15:10:13;12.50;99.90
26278;DHT22;14000;52.056;8.510;2023-03-23T15:12:39;12.60;99.90
26278;DHT22;14000;52.056;8.510;2023-03-23T15:15:07;12.60;99.90
26278;DHT22;14000;52.056;8.510;2023-03-23T15:17:45;12.60;99.90
26278;DHT22;14000;52.056;8.510;2023-03-23T15:20:27;12.60;99.90
26278;DHT22;14000;52.056;8.510;2023-03-23T15:22:53;12.50;99.90
26278;DHT22;14000;52.056;8.510;2023-03-23T15:25:32;12.40;99.90
26278;DHT22;14000;52.056;8.510;2023-03-23T15:28:14;12.40;99.90
26278;DHT22;14000;52.056;8.510;2023-03-23T15:30:49;12.40;99.90
26278;DHT22;14000;52.056;8.510;2023-03-23T15:33:15;12.30;99.90
26278;DHT22;14000;52.056;8.510;2023-03-23T15:35:50;12.30;99.90
26278;DHT22;14000;52.056;8.510;2023-03-23T15:38:24;12.20;99.90
26278;DHT22;14000;52.056;8.510;2023-03-23T15:40:52;12.30;99.90
26278;DHT22;14000;52.056;8.510;2023-03-23T15:43:26;12.20;99.90
26278;DHT22;14000;52.056;8.510;2023-03-23T15:46:00;12.30;99.90
26278;DHT22;14000;52.056;8.510;2023-03-23T15:48:30;12.30;99.90
26278;DHT22;14000;52.056;8.510;2023-03-23T15:50:56;12.30;99.90
26278;DHT22;14000;52.056;8.510;2023-03-23T15:55:53;12.30;99.90
26278;DHT22;14000;52.056;8.510;2023-03-23T15:58:19;12.30;99.90
26278;DHT22;14000;52.056;8.510;2023-03-23T16:00:46;12.20;99.90
26278;DHT22;14000;52.056;8.510;2023-03-23T16:03:18;12.30;99.90
26278;DHT22;14000;52.056;8.510;2023-03-23T16:05:45;12.30;99.90
26278;DHT22;14000;52.056;8.510;2023-03-23T16:08:11;12.30;99.90
26278;DHT22;14000;52.056;8.510;2023-03-23T16:10:37;12.40;99.90
26278;DHT22;14000;52.056;8.510;2023-03-23T16:13:03;12.30;99.90
26278;DHT22;14000;52.056;8.510;2023-03-23T16:15:30;12.40;99.90
26278;DHT22;14000;52.056;8.510;2023-03-23T16:17:55;12.30;99.90
26278;DHT22;14000;52.056;8.510;2023-03-23T16:20:22;12.30;99.90
26278;DHT22;14000;52.056;8.510;2023-03-23T16:22:48;12.30;99.90
26278;DHT22;14000;52.056;8.510;2023-03-23T16:25:15;12.40;99.90
26278;DHT22;14000;52.056;8.510;2023-03-23T16:27:41;12.40;99.90
26278;DHT22;14000;52.056;8.510;2023-03-23T16:30:26;12.40;99.90
26278;DHT22;14000;52.056;8.510;2023-03-23T16:32:52;12.40;99.90
26278;DHT22;14000;52.056;8.510;2023-03-23T16:35:18;12.40;99.90
26278;DHT22;14000;52.056;8.510;2023-03-23T16:37:50;12.30;99.90
26278;DHT22;14000;52.056;8.510;2023-03-23T16:40:17;12.30;99.90
26278;DHT22;14000;52.056;8.510;2023-03-23T16:42:43;12.30;99.90
26278;DHT22;14000;52.056;8.510;2023-03-23T16:45:09;12.30;99.90
26278;DHT22;14000;52.056;8.510;2023-03-23T16:47:35;12.40;99.90
26278;DHT22;14000;52.056;8.510;2023-03-23T16:50:02;12.40;99.90
26278;DHT22;14000;52.056;8.510;2023-03-23T16:52:31;12.40;99.90
26278;DHT22;14000;52.056;8.510;2023-03-23T16:54:56;12.30;99.90
26278;DHT22;14000;52.056;8.510;2023-03-23T16:57:22;12.30;99.90
26278;DHT22;14000;52.056;8.510;2023-03-23T16:59:48;12.30;99.90
26278;DHT22;14000;52.056;8.510;2023-03-23T17:02:13;12.30;99.90
26278;DHT22;14000;52.056;8.510;2023-03-23T17:04:45;12.30;99.90
26278;DHT22;14000;52.056;8.510;2023-03-23T17:07:12;12.20;99.90
26278;DHT22;14000;52.056;8.510;2023-03-23T17:09:38;12.30;99.90
26278;DHT22;14000;52.056;8.510;2023-03-23T17:12:04;12.30;99.90
26278;DHT22;14000;52.056;8.510;2023-03-23T17:14:30;12.30;99.90
26278;DHT22;14000;52.056;8.510;2023-03-23T17:16:56;12.30;99.90
26278;DHT22;14000;52.056;8.510;2023-03-23T17:19:21;12.30;99.90
26278;DHT22;14000;52.056;8.510;2023-03-23T17:21:47;12.20;99.90
26278;DHT22;14000;52.056;8.510;2023-03-23T17:24:13;12.20;99.90
26278;DHT22;14000;52.056;8.510;2023-03-23T17:26:38;12.20;99.90
26278;DHT22;14000;52.056;8.510;2023-03-23T17:29:04;12.20;99.90
26278;DHT22;14000;52.056;8.510;2023-03-23T17:31:30;12.10;99.90
26278;DHT22;14000;52.056;8.510;2023-03-23T17:33:55;12.10;99.90
26278;DHT22;14000;52.056;8.510;2023-03-23T17:36:22;12.20;99.90